createdAt,value
2023-06-25T00:01:11.789Z,16.83
2023-06-25T00:03:41.741Z,16.81
2023-06-25T00:06:10.332Z,16.81
2023-06-25T00:08:38.680Z,16.81
2023-06-25T00:11:06.668Z,16.85
2023-06-25T00:13:34.937Z,16.85
2023-06-25T00:16:03.253Z,16.83
2023-06-25T00:18:34.363Z,16.79
2023-06-25T00:21:05.758Z,16.76
2023-06-25T00:23:34.903Z,16.70
2023-06-25T00:26:03.492Z,16.70
2023-06-25T00:28:33.151Z,16.64
2023-06-25T00:31:01.228Z,16.57
2023-06-25T00:33:29.267Z,16.56
2023-06-25T00:36:09.479Z,16.57
2023-06-25T00:38:40.365Z,16.57
2023-06-25T00:41:09.981Z,16.55
2023-06-25T00:43:42.609Z,16.53
2023-06-25T00:46:14.124Z,16.49
2023-06-25T00:48:47.155Z,16.53
2023-06-25T00:51:19.049Z,16.52
2023-06-25T00:53:47.639Z,16.52
2023-06-25T00:56:18.610Z,16.49
2023-06-25T00:58:47.418Z,16.47
2023-06-25T01:01:22.369Z,16.50
2023-06-25T01:03:56.424Z,16.47
2023-06-25T01:06:30.579Z,16.53
2023-06-25T01:09:01.231Z,16.52
2023-06-25T01:11:31.075Z,16.47
2023-06-25T01:14:04.579Z,16.47
2023-06-25T01:16:34.323Z,16.43
2023-06-25T01:19:05.839Z,16.40
2023-06-25T01:21:38.599Z,16.35
2023-06-25T01:24:11.479Z,16.30
2023-06-25T01:26:39.541Z,16.29
2023-06-25T01:29:08.050Z,16.29
2023-06-25T01:31:37.320Z,16.32
2023-06-25T01:34:05.767Z,16.32
2023-06-25T01:36:40.840Z,16.32
2023-06-25T01:39:12.006Z,16.35
2023-06-25T01:41:40.339Z,16.36
2023-06-25T01:44:09.392Z,16.39
2023-06-25T01:46:39.318Z,16.37
2023-06-25T01:49:14.247Z,16.39
2023-06-25T01:51:49.744Z,16.36
2023-06-25T01:54:19.650Z,16.36
2023-06-25T01:56:47.715Z,16.30
2023-06-25T01:59:16.263Z,16.23
2023-06-25T02:01:45.022Z,16.22
2023-06-25T02:04:13.894Z,16.23
2023-06-25T02:06:42.528Z,16.28
2023-06-25T02:09:10.615Z,16.28
2023-06-25T02:11:41.626Z,16.30
2023-06-25T02:14:10.092Z,16.32
2023-06-25T02:16:39.812Z,16.37
2023-06-25T02:19:10.621Z,16.39
2023-06-25T02:21:38.805Z,16.43
2023-06-25T02:24:07.344Z,16.47
2023-06-25T02:26:36.088Z,16.49
2023-06-25T02:29:06.015Z,16.52
2023-06-25T02:31:34.126Z,16.53
2023-06-25T02:34:02.245Z,16.55
2023-06-25T02:36:30.586Z,16.59
2023-06-25T02:38:58.691Z,16.62
2023-06-25T02:41:28.406Z,16.60
2023-06-25T02:43:56.901Z,16.66
2023-06-25T02:46:26.345Z,16.66
2023-06-25T02:48:54.862Z,16.66
2023-06-25T02:51:23.083Z,16.64
2023-06-25T02:54:00.741Z,16.69
2023-06-25T02:56:31.698Z,16.74
2023-06-25T02:58:59.950Z,16.74
2023-06-25T03:01:32.325Z,16.77
2023-06-25T03:04:00.470Z,16.77
2023-06-25T03:06:28.490Z,16.79
2023-06-25T03:08:57.576Z,16.79
2023-06-25T03:11:28.869Z,16.87
2023-06-25T03:14:03.935Z,16.88
2023-06-25T03:16:34.479Z,16.90
2023-06-25T03:19:03.606Z,16.95
2023-06-25T03:21:31.956Z,17.01
2023-06-25T03:24:01.776Z,17.08
2023-06-25T03:26:30.574Z,17.12
2023-06-25T03:28:59.823Z,17.16
2023-06-25T03:31:28.118Z,17.22
2023-06-25T03:33:57.848Z,17.31
2023-06-25T03:36:26.961Z,17.29
2023-06-25T03:39:06.207Z,17.36
2023-06-25T03:41:36.466Z,17.41
2023-06-25T03:44:06.440Z,17.48
2023-06-25T03:46:34.568Z,17.52
2023-06-25T03:49:03.974Z,17.58
2023-06-25T03:51:32.818Z,17.63
2023-06-25T03:54:01.061Z,17.69
2023-06-25T03:56:32.140Z,17.70
2023-06-25T03:59:00.388Z,17.76
2023-06-25T04:01:28.555Z,17.83
2023-06-25T04:03:58.824Z,17.84
2023-06-25T04:06:28.288Z,17.89
2023-06-25T04:08:59.798Z,17.91
2023-06-25T04:11:31.116Z,17.97
2023-06-25T04:14:08.081Z,18.03
2023-06-25T04:16:36.669Z,18.08
2023-06-25T04:19:05.413Z,18.10
2023-06-25T04:21:36.282Z,18.18
2023-06-25T04:24:07.377Z,18.22
2023-06-25T04:26:35.524Z,18.28
2023-06-25T04:29:03.945Z,18.31
2023-06-25T04:31:33.120Z,18.38
2023-06-25T04:34:01.309Z,18.45
2023-06-25T04:36:30.594Z,18.51
2023-06-25T04:39:02.828Z,18.53
2023-06-25T04:41:30.793Z,18.59
2023-06-25T04:43:58.752Z,18.64
2023-06-25T04:46:27.222Z,18.69
2023-06-25T04:48:55.338Z,18.76
2023-06-25T04:51:24.248Z,18.78
2023-06-25T04:53:54.763Z,18.85
2023-06-25T04:56:26.438Z,18.90
2023-06-25T04:58:54.907Z,18.93
2023-06-25T05:01:24.615Z,19.02
2023-06-25T05:03:53.007Z,19.10
2023-06-25T05:06:21.520Z,19.16
2023-06-25T05:08:49.494Z,19.23
2023-06-25T05:11:17.876Z,19.31
2023-06-25T05:13:48.159Z,19.33
2023-06-25T05:16:16.953Z,19.43
2023-06-25T05:18:45.111Z,19.48
2023-06-25T05:21:13.501Z,19.57
2023-06-25T05:23:46.218Z,19.64
2023-06-25T05:26:14.705Z,19.72
2023-06-25T05:28:43.298Z,19.81
2023-06-25T05:31:18.348Z,19.86
2023-06-25T05:33:48.172Z,19.96
2023-06-25T05:36:18.005Z,20.05
2023-06-25T05:38:51.850Z,20.13
2023-06-25T05:41:20.256Z,20.22
2023-06-25T05:43:49.079Z,20.33
2023-06-25T05:46:24.109Z,20.40
2023-06-25T05:48:53.211Z,20.45
2023-06-25T05:51:22.906Z,20.54
2023-06-25T05:53:54.552Z,20.59
2023-06-25T05:56:25.597Z,20.65
2023-06-25T05:58:53.997Z,20.74
2023-06-25T06:01:23.520Z,20.75
2023-06-25T06:03:53.069Z,20.82
2023-06-25T06:06:27.177Z,20.91
2023-06-25T06:08:55.742Z,20.99
2023-06-25T06:11:24.871Z,21.08
2023-06-25T06:13:55.565Z,21.19
2023-06-25T06:16:27.066Z,21.29
2023-06-25T06:18:57.447Z,21.40
2023-06-25T06:21:25.805Z,21.50
2023-06-25T06:23:55.180Z,21.59
2023-06-25T06:26:23.534Z,21.73
2023-06-25T06:28:52.335Z,21.81
2023-06-25T06:31:23.949Z,21.94
2023-06-25T06:33:53.896Z,22.02
2023-06-25T06:36:22.662Z,22.17
2023-06-25T06:38:53.487Z,22.29
2023-06-25T06:41:30.865Z,22.41
2023-06-25T06:44:12.218Z,22.53
2023-06-25T06:46:41.485Z,22.61
2023-06-25T06:49:11.126Z,22.69
2023-06-25T06:51:48.035Z,22.82
2023-06-25T06:54:18.913Z,22.93
2023-06-25T06:56:48.302Z,23.00
2023-06-25T06:59:16.913Z,23.12
2023-06-25T07:01:45.117Z,23.19
2023-06-25T07:04:17.363Z,23.31
2023-06-25T07:06:45.756Z,23.40
2023-06-25T07:09:15.418Z,23.48
2023-06-25T07:11:43.557Z,23.62
2023-06-25T07:14:14.106Z,23.70
2023-06-25T07:16:43.084Z,23.81
2023-06-25T07:19:11.455Z,23.96
2023-06-25T07:21:42.808Z,24.03
2023-06-25T07:24:11.087Z,24.06
2023-06-25T07:26:40.313Z,24.10
2023-06-25T07:29:09.515Z,24.20
2023-06-25T07:31:40.015Z,24.35
2023-06-25T07:34:08.401Z,24.51
2023-06-25T07:36:37.714Z,24.73
2023-06-25T07:39:08.125Z,24.90
2023-06-25T07:41:38.170Z,24.97
2023-06-25T07:44:19.783Z,24.99
2023-06-25T07:46:56.122Z,25.05
2023-06-25T07:49:24.316Z,25.19
2023-06-25T07:51:54.442Z,25.42
2023-06-25T07:54:23.933Z,25.55
2023-06-25T07:56:53.625Z,25.72
2023-06-25T07:59:23.564Z,25.77
2023-06-25T08:01:52.397Z,25.87
2023-06-25T08:04:21.755Z,26.10
2023-06-25T08:06:50.672Z,26.35
2023-06-25T08:09:19.275Z,26.52
2023-06-25T08:11:49.208Z,26.62
2023-06-25T08:14:17.594Z,26.86
2023-06-25T08:16:46.758Z,27.08
2023-06-25T08:19:15.365Z,27.29
2023-06-25T08:21:44.943Z,27.54
2023-06-25T08:24:15.399Z,27.82
2023-06-25T08:26:43.809Z,28.12
2023-06-25T08:29:19.353Z,28.33
2023-06-25T08:31:48.676Z,28.60
2023-06-25T08:34:17.108Z,28.91
2023-06-25T08:36:45.905Z,29.17
2023-06-25T08:39:14.577Z,29.34
2023-06-25T08:41:43.313Z,29.35
2023-06-25T08:44:11.763Z,29.28
2023-06-25T08:46:46.494Z,29.39
2023-06-25T08:49:14.868Z,29.59
2023-06-25T08:51:44.159Z,29.79
2023-06-25T08:54:12.510Z,30.03
2023-06-25T08:56:43.081Z,30.31
2023-06-25T08:59:12.711Z,30.58
2023-06-25T09:01:43.745Z,30.88
2023-06-25T09:04:12.424Z,31.06
2023-06-25T09:06:58.533Z,31.12
2023-06-25T09:09:29.644Z,31.25
2023-06-25T09:11:58.281Z,31.25
2023-06-25T09:14:27.878Z,31.39
2023-06-25T09:17:01.229Z,31.47
2023-06-25T09:19:30.777Z,31.64
2023-06-25T09:22:00.001Z,31.83
2023-06-25T09:24:29.482Z,31.98
2023-06-25T09:26:58.058Z,32.17
2023-06-25T09:29:28.978Z,32.31
2023-06-25T09:31:58.781Z,32.38
2023-06-25T09:34:28.597Z,32.37
2023-06-25T09:37:00.504Z,32.45
2023-06-25T09:39:29.990Z,32.48
2023-06-25T09:42:01.428Z,32.58
2023-06-25T09:44:32.710Z,32.76
2023-06-25T09:47:06.496Z,32.99
2023-06-25T09:49:35.049Z,33.12
2023-06-25T09:52:10.895Z,33.17
2023-06-25T09:54:41.471Z,33.29
2023-06-25T09:57:12.312Z,32.56
2023-06-25T09:59:40.869Z,32.72
2023-06-25T10:02:12.316Z,32.86
2023-06-25T10:04:44.171Z,33.05
2023-06-25T10:07:13.290Z,33.27
2023-06-25T10:09:55.420Z,33.61
2023-06-25T10:12:26.525Z,34.08
2023-06-25T10:14:59.424Z,33.91
2023-06-25T10:17:35.088Z,33.54
2023-06-25T10:20:08.734Z,33.63
2023-06-25T10:22:39.699Z,33.94
2023-06-25T10:25:30.020Z,34.22
2023-06-25T10:28:06.590Z,34.33
2023-06-25T10:30:41.855Z,34.65
2023-06-25T10:33:20.703Z,34.83
2023-06-25T10:36:01.338Z,34.96
2023-06-25T10:38:32.876Z,35.24
2023-06-25T10:41:04.122Z,35.33
2023-06-25T10:43:35.832Z,35.45
2023-06-25T10:46:03.908Z,35.33
2023-06-25T10:48:38.716Z,34.85
2023-06-25T10:51:07.729Z,34.83
2023-06-25T10:53:36.483Z,34.93
2023-06-25T10:56:05.700Z,35.20
2023-06-25T10:58:35.272Z,35.43
2023-06-25T11:01:03.438Z,35.75
2023-06-25T11:03:38.693Z,35.85
2023-06-25T11:06:08.677Z,35.70
2023-06-25T11:08:38.437Z,35.70
2023-06-25T11:11:10.177Z,35.77
2023-06-25T11:13:39.555Z,35.78
2023-06-25T11:16:08.634Z,35.58
2023-06-25T11:18:39.938Z,35.35
2023-06-25T11:21:12.345Z,35.23
2023-06-25T11:23:45.945Z,34.80
2023-06-25T11:26:18.463Z,34.39
2023-06-25T11:28:51.209Z,34.56
2023-06-25T11:31:27.663Z,34.82
2023-06-25T11:34:13.224Z,34.46
2023-06-25T11:36:52.318Z,34.14
2023-06-25T11:39:24.318Z,33.87
2023-06-25T11:41:57.190Z,33.85
2023-06-25T11:44:28.945Z,33.94
2023-06-25T11:47:02.208Z,34.08
2023-06-25T11:49:35.242Z,34.01
2023-06-25T11:52:06.766Z,33.98
2023-06-25T11:54:38.013Z,33.91
2023-06-25T11:57:07.279Z,33.88
2023-06-25T11:59:41.678Z,33.91
2023-06-25T12:02:12.070Z,33.98
2023-06-25T12:04:43.743Z,33.92
2023-06-25T12:07:18.142Z,33.82
2023-06-25T12:09:49.822Z,33.50
2023-06-25T12:12:34.828Z,33.20
2023-06-25T12:15:08.772Z,32.96
2023-06-25T12:17:45.848Z,32.90
2023-06-25T12:20:15.873Z,32.90
2023-06-25T12:22:44.574Z,32.92
2023-06-25T12:25:14.388Z,32.95
2023-06-25T12:27:54.749Z,32.98
2023-06-25T12:30:28.472Z,32.96
2023-06-25T12:33:03.091Z,32.92
2023-06-25T12:35:39.434Z,32.85
2023-06-25T12:38:12.310Z,32.80
2023-06-25T12:40:44.292Z,32.56
2023-06-25T12:43:16.209Z,32.39
2023-06-25T12:45:47.333Z,32.38
2023-06-25T12:48:17.208Z,32.38
2023-06-25T12:50:57.466Z,32.24
2023-06-25T12:53:28.547Z,32.18
2023-06-25T12:56:02.508Z,32.14
2023-06-25T12:58:31.084Z,32.10
2023-06-25T13:01:15.418Z,32.07
2023-06-25T13:03:45.574Z,32.07
2023-06-25T13:06:16.218Z,32.08
2023-06-25T13:08:45.188Z,32.05
2023-06-25T13:11:13.799Z,31.96
2023-06-25T13:13:44.505Z,31.96
2023-06-25T13:49:18.573Z,31.05
2023-06-25T13:51:48.209Z,31.08
2023-06-25T13:54:18.286Z,31.18
2023-06-25T13:56:48.348Z,31.15
2023-06-25T13:59:18.025Z,31.08
2023-06-25T14:01:46.311Z,31.06
2023-06-25T14:04:16.597Z,31.03
2023-06-25T14:06:44.897Z,31.05
2023-06-25T14:09:14.391Z,31.05
2023-06-25T14:11:43.249Z,31.06
2023-06-25T14:14:13.064Z,31.05
2023-06-25T14:16:41.238Z,31.08
2023-06-25T14:19:10.315Z,31.00
2023-06-25T14:21:40.533Z,30.77
2023-06-25T14:24:10.531Z,30.77
2023-06-25T14:26:38.819Z,30.81
2023-06-25T14:29:11.707Z,30.84
2023-06-25T14:31:40.744Z,30.84
2023-06-25T14:34:09.364Z,30.74
2023-06-25T14:36:39.215Z,30.58
2023-06-25T14:39:07.792Z,30.55
2023-06-25T14:41:36.163Z,30.49
2023-06-25T14:44:05.752Z,30.51
2023-06-25T14:46:34.199Z,30.55
2023-06-25T14:49:02.584Z,30.57
2023-06-25T14:51:30.881Z,30.55
2023-06-25T14:54:00.585Z,30.51
2023-06-25T14:56:28.980Z,30.55
2023-06-25T14:58:57.074Z,30.38
2023-06-25T15:01:28.138Z,30.30
2023-06-25T15:03:56.623Z,30.28
2023-06-25T15:06:34.728Z,30.27
2023-06-25T15:09:06.959Z,30.16
2023-06-25T15:11:35.577Z,30.07
2023-06-25T15:14:04.425Z,29.96
2023-06-25T15:16:33.175Z,29.86
2023-06-25T15:19:01.311Z,29.76
2023-06-25T15:21:29.677Z,29.71
2023-06-25T15:23:58.034Z,29.59
2023-06-25T15:26:28.024Z,29.49
2023-06-25T15:28:56.397Z,29.39
2023-06-25T15:31:24.903Z,29.30
2023-06-25T15:33:53.038Z,29.15
2023-06-25T15:36:21.209Z,28.98
2023-06-25T15:38:55.112Z,28.87
2023-06-25T15:41:23.826Z,28.66
2023-06-25T15:43:53.519Z,28.47
2023-06-25T15:46:21.813Z,28.31
2023-06-25T15:48:50.391Z,28.19
2023-06-25T15:51:19.446Z,28.09
2023-06-25T15:53:47.922Z,28.01
2023-06-25T15:56:19.051Z,27.92
2023-06-25T15:58:50.219Z,27.87
2023-06-25T16:01:20.534Z,27.84
2023-06-25T16:03:49.398Z,27.81
2023-06-25T16:06:18.100Z,27.77
2023-06-25T16:08:46.609Z,27.74
2023-06-25T16:11:15.717Z,27.66
2023-06-25T16:13:44.555Z,27.63
2023-06-25T16:16:13.804Z,27.63
2023-06-25T16:18:43.965Z,27.57
2023-06-25T16:21:12.102Z,27.51
2023-06-25T16:23:40.558Z,27.48
2023-06-25T16:26:10.068Z,27.44
2023-06-25T16:28:40.430Z,27.40
2023-06-25T16:31:09.843Z,27.37
2023-06-25T16:33:38.216Z,27.30
2023-06-25T16:36:09.081Z,27.24
2023-06-25T16:38:37.223Z,27.18
2023-06-25T16:41:08.050Z,27.08
2023-06-25T16:43:36.830Z,27.00
2023-06-25T16:46:05.083Z,26.90
2023-06-25T16:48:33.346Z,26.83
2023-06-25T16:51:02.588Z,26.76
2023-06-25T16:53:33.821Z,26.69
2023-06-25T16:56:02.830Z,26.65
2023-06-25T16:58:32.929Z,26.60
2023-06-25T17:01:02.578Z,26.55
2023-06-25T17:03:33.369Z,26.52
2023-06-25T17:06:02.197Z,26.49
2023-06-25T17:08:33.052Z,26.42
2023-06-25T17:11:03.794Z,26.41
2023-06-25T17:13:32.956Z,26.38
2023-06-25T17:16:02.422Z,26.31
2023-06-25T17:18:32.065Z,26.28
2023-06-25T17:21:01.046Z,26.27
2023-06-25T17:23:29.874Z,26.20
2023-06-25T17:26:00.471Z,26.18
2023-06-25T17:28:31.818Z,26.13
2023-06-25T17:30:59.876Z,26.09
2023-06-25T17:33:27.865Z,26.05
2023-06-25T17:35:57.491Z,26.04
2023-06-25T17:38:28.302Z,25.98
2023-06-25T17:40:56.909Z,25.93
2023-06-25T17:43:25.222Z,25.92
2023-06-25T17:45:55.361Z,25.87
2023-06-25T17:48:24.013Z,25.84
2023-06-25T17:50:52.189Z,25.80
2023-06-25T17:53:20.426Z,25.77
2023-06-25T17:55:50.376Z,25.70
2023-06-25T17:58:19.866Z,25.65
2023-06-25T18:00:49.638Z,25.62
2023-06-25T18:03:20.602Z,25.56
2023-06-25T18:05:49.814Z,25.58
2023-06-25T18:08:18.766Z,25.55
2023-06-25T18:10:47.058Z,25.49
2023-06-25T18:13:15.102Z,25.43
2023-06-25T18:15:43.216Z,25.36
2023-06-25T18:18:17.187Z,25.34
2023-06-25T18:20:49.787Z,25.31
2023-06-25T18:23:18.450Z,25.22
2023-06-25T18:25:46.869Z,25.15
2023-06-25T18:28:16.111Z,25.12
2023-06-25T18:30:44.877Z,25.11
2023-06-25T18:33:14.976Z,25.10
2023-06-25T18:35:43.986Z,25.07
2023-06-25T18:38:13.620Z,24.99
2023-06-25T18:40:42.253Z,24.95
2023-06-25T18:43:11.999Z,24.87
2023-06-25T18:45:40.920Z,24.78
2023-06-25T18:48:09.113Z,24.76
2023-06-25T18:50:38.120Z,24.68
2023-06-25T18:53:06.278Z,24.63
2023-06-25T18:55:35.763Z,24.59
2023-06-25T18:58:04.284Z,24.53
2023-06-25T19:00:32.388Z,24.46
2023-06-25T19:03:00.790Z,24.37
2023-06-25T19:05:29.387Z,24.30
2023-06-25T19:07:58.705Z,24.18
2023-06-25T19:10:28.928Z,24.09
2023-06-25T19:13:02.549Z,24.06
2023-06-25T19:15:31.185Z,23.99
2023-06-25T19:18:01.579Z,23.93
2023-06-25T19:20:30.399Z,23.88
2023-06-25T19:23:23.969Z,23.82
2023-06-25T19:25:46.939Z,23.71
2023-06-25T19:28:16.710Z,23.64
2023-06-25T19:30:45.088Z,23.53
2023-06-25T19:33:13.691Z,23.48
2023-06-25T19:35:42.944Z,23.38
2023-06-25T19:38:11.255Z,23.34
2023-06-25T19:40:43.325Z,23.28
2023-06-25T19:43:13.099Z,23.17
2023-06-25T19:45:43.885Z,23.07
2023-06-25T19:48:12.066Z,23.02
2023-06-25T19:50:40.389Z,22.90
2023-06-25T19:53:08.587Z,22.79
2023-06-25T19:55:36.837Z,22.75
2023-06-25T19:58:04.877Z,22.66
2023-06-25T20:00:33.131Z,22.59
2023-06-25T20:03:03.679Z,22.49
2023-06-25T20:05:36.466Z,22.46
2023-06-25T20:08:04.958Z,22.42
2023-06-25T20:10:33.910Z,22.32
2023-06-25T20:13:03.350Z,22.25
2023-06-25T20:15:32.115Z,22.20
2023-06-25T20:18:00.570Z,22.18
2023-06-25T20:20:30.509Z,22.11
2023-06-25T20:22:59.136Z,22.00
2023-06-25T20:25:27.883Z,21.90
2023-06-25T20:27:55.983Z,21.83
2023-06-25T20:30:25.281Z,21.74
2023-06-25T20:32:55.678Z,21.71
2023-06-25T20:35:23.810Z,21.66
2023-06-25T20:37:55.609Z,21.62
2023-06-25T20:40:25.113Z,21.60
2023-06-25T20:42:55.182Z,21.56
2023-06-25T20:45:23.797Z,21.52
2023-06-25T20:48:00.910Z,21.53
2023-06-25T20:50:30.062Z,21.45
2023-06-25T20:52:59.820Z,21.40
2023-06-25T20:55:28.714Z,21.35
2023-06-25T20:57:57.347Z,21.32
2023-06-25T21:00:31.659Z,21.25
2023-06-25T21:03:02.866Z,21.16
2023-06-25T21:05:33.423Z,21.08
2023-06-25T21:08:03.084Z,20.99
2023-06-25T21:10:31.964Z,20.94
2023-06-25T21:13:00.042Z,20.94
2023-06-25T21:15:29.979Z,20.87
2023-06-25T21:18:00.792Z,20.84
2023-06-25T21:20:28.945Z,20.81
2023-06-25T21:22:57.023Z,20.75
2023-06-25T21:25:26.772Z,20.68
2023-06-25T21:27:54.926Z,20.63
2023-06-25T21:30:22.943Z,20.63
2023-06-25T21:32:51.067Z,20.59
2023-06-25T21:35:19.907Z,20.61
2023-06-25T21:37:48.508Z,20.59
2023-06-25T21:40:17.093Z,20.60
2023-06-25T21:42:47.934Z,20.55
2023-06-25T21:45:16.712Z,20.50
2023-06-25T21:47:45.840Z,20.51
2023-06-25T21:50:15.871Z,20.53
2023-06-25T21:52:47.925Z,20.50
2023-06-25T21:55:16.395Z,20.44
2023-06-25T21:57:46.119Z,20.44
2023-06-25T22:00:15.424Z,20.37
2023-06-25T22:02:44.178Z,20.34
2023-06-25T22:05:17.481Z,20.30
2023-06-25T22:07:45.910Z,20.26
2023-06-25T22:10:14.467Z,20.22
2023-06-25T22:12:42.844Z,20.16
2023-06-25T22:15:12.618Z,20.13
2023-06-25T22:17:41.758Z,20.10
2023-06-25T22:20:10.424Z,20.05
2023-06-25T22:22:38.532Z,20.03
2023-06-25T22:25:08.742Z,20.01
2023-06-25T22:27:51.435Z,19.99
2023-06-25T22:30:22.364Z,19.98
2023-06-25T22:32:50.961Z,19.96
2023-06-25T22:35:19.373Z,19.95
2023-06-25T22:37:48.130Z,19.92
2023-06-25T22:40:16.912Z,19.89
2023-06-25T22:42:45.565Z,19.90
2023-06-25T22:45:13.995Z,19.83
2023-06-25T22:47:44.845Z,19.81
2023-06-25T22:50:14.047Z,19.78
2023-06-25T22:52:42.857Z,19.74
2023-06-25T22:55:11.264Z,19.68
2023-06-25T22:57:39.296Z,19.68
2023-06-25T23:00:11.640Z,19.64
2023-06-25T23:02:39.807Z,19.58
2023-06-25T23:05:09.747Z,19.57
2023-06-25T23:07:37.884Z,19.55
2023-06-25T23:10:06.162Z,19.54
2023-06-25T23:12:34.606Z,19.53
2023-06-25T23:15:02.682Z,19.54
2023-06-25T23:17:31.154Z,19.53
2023-06-25T23:19:59.553Z,19.53
2023-06-25T23:22:30.519Z,19.50
2023-06-25T23:25:03.399Z,19.48
2023-06-25T23:27:39.272Z,19.44
2023-06-25T23:30:08.164Z,19.40
2023-06-25T23:32:36.859Z,19.38
2023-06-25T23:35:05.214Z,19.36
2023-06-25T23:37:40.792Z,19.28
2023-06-25T23:40:10.585Z,19.30
2023-06-25T23:42:38.974Z,19.28
2023-06-25T23:45:07.565Z,19.23
2023-06-25T23:47:36.006Z,19.21
2023-06-25T23:50:04.411Z,19.21
2023-06-25T23:52:34.729Z,19.18
2023-06-25T23:55:02.827Z,19.21
2023-06-25T23:57:32.228Z,19.17
